Time;durP1;ratioP1;P1;durP2;ratioP2;P2;SDS_P1;SDS_P2;PMS_P1;PMS_P2;Temp;Humidity;BMP_temperature;BMP_pressure;BME280_temperature;BME280_humidity;BME280_pressure;Samples;Min_cycle;Max_cycle;Signal;HPM_P1;HPM_P2
2023/06/21 00:02:25;;;;;;;14.63;11.25;;;;;;;;;;4991466;28;20043;-83
2023/06/21 00:04:55;;;;;;;15.07;11.90;;;;;;;;;;4991256;28;20037;-81
2023/06/21 00:07:23;;;;;;;14.27;12.02;;;;;;;;;;4990929;28;20018;-82
2023/06/21 00:09:52;;;;;;;15.15;11.68;;;;;;;;;;4992526;28;20336;-81
2023/06/21 00:12:18;;;;;;;13.50;11.68;;;;;;;;;;4991063;28;20079;-82
2023/06/21 00:14:43;;;;;;;14.27;11.43;;;;;;;;;;4991376;28;20124;-82
2023/06/21 00:17:09;;;;;;;14.57;11.30;;;;;;;;;;4992890;28;20026;-81
2023/06/21 00:19:34;;;;;;;19.23;12.80;;;;;;;;;;4993414;28;20420;-81
2023/06/21 00:22:00;;;;;;;14.20;12.05;;;;;;;;;;4995984;28;20133;-81
2023/06/21 00:24:25;;;;;;;17.35;12.75;;;;;;;;;;4995051;28;20364;-80
2023/06/21 00:26:51;;;;;;;12.85;10.93;;;;;;;;;;5011473;28;20018;-79
2023/06/21 00:29:16;;;;;;;13.60;11.25;;;;;;;;;;5013459;28;20026;-79
2023/06/21 00:31:42;;;;;;;16.20;12.52;;;;;;;;;;5011330;28;20026;-82
2023/06/21 00:34:07;;;;;;;14.25;12.48;;;;;;;;;;4993091;28;20037;-82
2023/06/21 00:36:33;;;;;;;14.60;11.88;;;;;;;;;;4991195;28;20674;-82
2023/06/21 00:38:58;;;;;;;14.50;13.00;;;;;;;;;;4994050;28;20257;-82
2023/06/21 00:41:24;;;;;;;15.50;13.23;;;;;;;;;;5019333;28;20033;-82
2023/06/21 00:43:50;;;;;;;13.68;12.10;;;;;;;;;;5006014;28;20041;-82
2023/06/21 00:46:16;;;;;;;13.00;11.35;;;;;;;;;;4999439;28;20434;-79
2023/06/21 00:48:41;;;;;;;14.90;12.40;;;;;;;;;;4993454;28;20087;-82
2023/06/21 00:51:08;;;;;;;16.60;13.18;;;;;;;;;;4993582;28;20489;-83
2023/06/21 00:53:34;;;;;;;17.35;13.07;;;;;;;;;;4991342;28;20026;-82
2023/06/21 00:56:02;;;;;;;14.63;12.73;;;;;;;;;;5006391;28;20053;-82
2023/06/21 00:58:28;;;;;;;17.10;11.93;;;;;;;;;;4990364;28;20041;-80
2023/06/21 01:00:54;;;;;;;14.30;11.98;;;;;;;;;;5006380;28;20023;-82
2023/06/21 01:03:20;;;;;;;16.90;12.30;;;;;;;;;;4991064;28;20474;-82
2023/06/21 01:06:37;;;;;;;15.93;13.00;;;;;;;;;;4991095;28;20037;-82
2023/06/21 01:09:43;;;;;;;15.50;12.48;;;;;;;;;;4990750;28;20085;-82
2023/06/21 01:12:21;;;;;;;15.98;11.73;;;;;;;;;;4995149;28;20053;-82
2023/06/21 01:15:14;;;;;;;15.38;13.00;;;;;;;;;;4993897;28;20026;-82
2023/06/21 01:17:43;;;;;;;17.98;13.98;;;;;;;;;;4991118;28;20046;-81
2023/06/21 01:20:18;;;;;;;16.48;12.52;;;;;;;;;;4992089;28;20069;-82
2023/06/21 01:23:12;;;;;;;15.32;12.68;;;;;;;;;;4994190;28;20061;-82
2023/06/21 01:25:56;;;;;;;16.75;13.32;;;;;;;;;;4993860;28;20041;-83
2023/06/21 01:28:47;;;;;;;16.55;13.30;;;;;;;;;;4997429;28;20076;-81
2023/06/21 01:31:15;;;;;;;17.23;14.23;;;;;;;;;;5006691;28;20022;-79
2023/06/21 01:33:41;;;;;;;16.58;13.85;;;;;;;;;;5004245;28;20030;-82
2023/06/21 01:36:09;;;;;;;15.45;12.98;;;;;;;;;;4999499;28;20486;-82
2023/06/21 01:38:35;;;;;;;17.92;13.82;;;;;;;;;;4991951;28;20033;-83
2023/06/21 01:41:01;;;;;;;18.00;13.88;;;;;;;;;;5007852;28;20022;-81
2023/06/21 01:43:29;;;;;;;15.73;13.88;;;;;;;;;;4992906;28;20085;-81
2023/06/21 01:45:56;;;;;;;18.63;14.02;;;;;;;;;;4991529;28;20050;-81
2023/06/21 01:48:23;;;;;;;15.93;14.07;;;;;;;;;;4992768;28;20030;-82
2023/06/21 01:50:50;;;;;;;24.58;13.85;;;;;;;;;;4990454;28;20026;-81
2023/06/21 01:53:18;;;;;;;18.23;13.40;;;;;;;;;;4995546;28;20026;-79
2023/06/21 01:55:48;;;;;;;17.15;13.77;;;;;;;;;;4991592;28;20022;-81
2023/06/21 01:58:15;;;;;;;18.95;14.48;;;;;;;;;;4989394;28;20022;-81
2023/06/21 02:00:41;;;;;;;15.07;12.20;;;;;;;;;;4990864;28;20018;-81
2023/06/21 02:03:13;;;;;;;18.15;14.15;;;;;;;;;;4990833;28;20042;-80
2023/06/21 02:05:41;;;;;;;16.73;13.23;;;;;;;;;;4988606;28;20030;-81
2023/06/21 02:08:15;;;;;;;18.48;13.52;;;;;;;;;;4988706;28;20026;-81
2023/06/21 02:10:43;;;;;;;19.70;13.68;;;;;;;;;;4988899;28;20054;-80
2023/06/21 02:13:08;;;;;;;16.40;13.20;;;;;;;;;;4992793;28;20354;-83
2023/06/21 02:15:34;;;;;;;19.30;13.95;;;;;;;;;;4992585;28;20030;-83
2023/06/21 02:18:01;;;;;;;21.38;14.40;;;;;;;;;;4994207;28;20034;-82
2023/06/21 02:20:28;;;;;;;15.63;13.93;;;;;;;;;;4994173;28;20554;-80
2023/06/21 02:22:54;;;;;;;17.27;13.40;;;;;;;;;;4992642;28;20058;-81
2023/06/21 02:25:21;;;;;;;15.93;13.48;;;;;;;;;;4992348;28;20034;-82
2023/06/21 02:27:47;;;;;;;15.73;12.05;;;;;;;;;;4993794;28;20054;-80
2023/06/21 02:30:13;;;;;;;15.80;12.90;;;;;;;;;;4992220;28;20065;-81
2023/06/21 02:32:38;;;;;;;20.40;15.15;;;;;;;;;;4994283;28;20033;-82
2023/06/21 02:35:05;;;;;;;41.78;16.75;;;;;;;;;;4992888;28;20027;-81
2023/06/21 02:37:30;;;;;;;27.85;14.63;;;;;;;;;;4993906;28;20026;-81
2023/06/21 02:39:57;;;;;;;18.23;12.80;;;;;;;;;;4993525;28;20177;-82
2023/06/21 02:42:23;;;;;;;18.58;12.85;;;;;;;;;;4993208;28;20095;-82
2023/06/21 02:44:48;;;;;;;18.25;13.40;;;;;;;;;;4993121;28;20048;-81
2023/06/21 02:47:14;;;;;;;14.65;12.45;;;;;;;;;;4992545;28;20033;-81
2023/06/21 02:49:39;;;;;;;16.38;11.10;;;;;;;;;;4993650;28;20030;-82
2023/06/21 02:52:05;;;;;;;18.25;12.00;;;;;;;;;;4995606;28;20023;-82
2023/06/21 02:54:31;;;;;;;18.23;11.30;;;;;;;;;;4993836;28;20029;-81
2023/06/21 02:56:58;;;;;;;38.15;13.98;;;;;;;;;;4998523;28;20030;-79
2023/06/21 02:59:28;;;;;;;20.13;11.95;;;;;;;;;;5011862;28;20010;-81
2023/06/21 03:01:54;;;;;;;16.17;11.25;;;;;;;;;;5007854;28;20090;-81
2023/06/21 03:04:20;;;;;;;13.80;11.43;;;;;;;;;;5000844;28;20109;-80
2023/06/21 03:06:45;;;;;;;21.30;12.57;;;;;;;;;;4992651;28;20157;-82
2023/06/21 03:09:11;;;;;;;18.95;12.65;;;;;;;;;;4992218;28;20514;-82
2023/06/21 03:11:37;;;;;;;23.63;13.20;;;;;;;;;;4993315;28;20108;-81
2023/06/21 03:14:03;;;;;;;23.40;13.02;;;;;;;;;;4992807;28;20034;-82
2023/06/21 03:16:30;;;;;;;15.32;12.13;;;;;;;;;;4991874;28;20053;-82
2023/06/21 03:18:55;;;;;;;24.27;13.10;;;;;;;;;;4991964;28;20022;-80
2023/06/21 03:21:22;;;;;;;17.48;13.40;;;;;;;;;;4991122;28;20397;-79
2023/06/21 03:23:48;;;;;;;20.77;12.65;;;;;;;;;;4991016;28;20030;-83
2023/06/21 03:26:14;;;;;;;18.95;12.75;;;;;;;;;;5007483;28;20030;-81
2023/06/21 03:28:41;;;;;;;19.15;12.68;;;;;;;;;;4991222;28;20081;-81
2023/06/21 03:31:07;;;;;;;19.65;12.75;;;;;;;;;;4991234;28;20022;-82
2023/06/21 03:33:32;;;;;;;15.85;13.07;;;;;;;;;;4991209;28;20623;-80
2023/06/21 03:35:58;;;;;;;17.02;12.13;;;;;;;;;;4990967;28;20023;-81
2023/06/21 03:38:23;;;;;;;20.42;13.02;;;;;;;;;;5007439;28;20483;-82
2023/06/21 03:40:48;;;;;;;16.52;12.52;;;;;;;;;;4992478;28;20038;-81
2023/06/21 03:43:15;;;;;;;18.70;12.52;;;;;;;;;;4992408;28;20489;-81
2023/06/21 03:45:41;;;;;;;14.80;12.15;;;;;;;;;;4992325;28;20026;-81
2023/06/21 03:48:07;;;;;;;19.00;12.23;;;;;;;;;;4992789;28;20749;-82
2023/06/21 03:50:33;;;;;;;19.52;12.23;;;;;;;;;;4992534;28;20038;-81
2023/06/21 03:52:58;;;;;;;17.10;12.23;;;;;;;;;;4991360;28;20046;-81
2023/06/21 03:55:25;;;;;;;15.43;12.27;;;;;;;;;;5007206;28;20057;-81
2023/06/21 03:57:50;;;;;;;16.70;11.38;;;;;;;;;;4992577;28;20033;-81
2023/06/21 04:00:17;;;;;;;16.25;11.68;;;;;;;;;;4994387;28;20024;-81
2023/06/21 04:02:43;;;;;;;15.77;11.57;;;;;;;;;;5001311;28;20034;-81
2023/06/21 04:05:12;;;;;;;14.88;12.02;;;;;;;;;;4994691;28;20026;-81
2023/06/21 04:07:38;;;;;;;15.70;12.25;;;;;;;;;;4996432;28;20125;-81
2023/06/21 04:10:04;;;;;;;18.13;13.40;;;;;;;;;;5000185;28;20647;-81
2023/06/21 04:12:32;;;;;;;19.90;12.77;;;;;;;;;;4996459;28;20034;-82
2023/06/21 04:15:01;;;;;;;20.05;14.90;;;;;;;;;;4991168;28;20537;-82
2023/06/21 04:17:30;;;;;;;17.50;13.30;;;;;;;;;;4991563;28;20041;-82
2023/06/21 04:19:56;;;;;;;16.58;13.15;;;;;;;;;;4991712;28;20471;-81
2023/06/21 04:22:23;;;;;;;19.67;15.05;;;;;;;;;;4991229;28;20082;-83
2023/06/21 04:24:49;;;;;;;18.35;13.77;;;;;;;;;;4991871;28;20039;-82
2023/06/21 04:27:15;;;;;;;29.55;14.65;;;;;;;;;;4990501;28;20065;-81
2023/06/21 04:29:41;;;;;;;22.55;14.13;;;;;;;;;;4991439;28;20030;-81
2023/06/21 04:32:09;;;;;;;22.35;13.48;;;;;;;;;;4990204;28;20040;-81
2023/06/21 04:34:36;;;;;;;18.10;12.93;;;;;;;;;;4991849;28;20026;-81
2023/06/21 04:37:05;;;;;;;23.48;14.00;;;;;;;;;;4990823;28;20177;-83
2023/06/21 04:39:31;;;;;;;19.17;13.15;;;;;;;;;;4991957;28;20364;-81
2023/06/21 04:42:00;;;;;;;21.55;13.15;;;;;;;;;;5006827;28;20030;-82
2023/06/21 04:44:27;;;;;;;20.58;12.77;;;;;;;;;;4990904;28;20054;-80
2023/06/21 04:46:54;;;;;;;30.20;14.00;;;;;;;;;;4990183;28;20109;-82
2023/06/21 04:49:19;;;;;;;18.58;12.90;;;;;;;;;;4990535;28;20139;-82
2023/06/21 04:51:45;;;;;;;16.67;11.30;;;;;;;;;;4992779;28;20057;-82
2023/06/21 04:54:11;;;;;;;17.65;11.95;;;;;;;;;;5007200;28;20085;-81
2023/06/21 04:56:37;;;;;;;19.75;12.15;;;;;;;;;;4992436;28;20426;-82
2023/06/21 04:59:03;;;;;;;16.10;11.35;;;;;;;;;;4993183;28;20057;-82
2023/06/21 05:01:30;;;;;;;20.10;11.30;;;;;;;;;;4995171;28;20026;-82
2023/06/21 05:03:56;;;;;;;19.35;10.65;;;;;;;;;;4999401;28;20033;-82
2023/06/21 05:06:25;;;;;;;21.02;10.52;;;;;;;;;;5006363;28;20034;-81
2023/06/21 05:08:50;;;;;;;20.92;10.18;;;;;;;;;;5001340;28;20030;-83
2023/06/21 05:11:18;;;;;;;19.92;10.02;;;;;;;;;;4998573;28;20102;-81
2023/06/21 05:13:44;;;;;;;15.60;10.27;;;;;;;;;;4996600;28;20065;-83
2023/06/21 05:16:11;;;;;;;13.00;9.45;;;;;;;;;;4992971;28;20491;-83
2023/06/21 05:18:38;;;;;;;15.57;9.73;;;;;;;;;;4993001;28;20089;-81
2023/06/21 05:21:05;;;;;;;24.33;10.77;;;;;;;;;;5011399;28;20434;-81
2023/06/21 05:23:30;;;;;;;15.05;8.90;;;;;;;;;;5013933;28;20049;-82
2023/06/21 05:25:56;;;;;;;13.45;8.98;;;;;;;;;;5008385;28;20140;-78
2023/06/21 05:28:22;;;;;;;15.25;10.05;;;;;;;;;;4999912;28;20029;-82
2023/06/21 05:30:47;;;;;;;13.70;9.93;;;;;;;;;;5012102;28;20450;-81
2023/06/21 05:33:14;;;;;;;22.95;11.45;;;;;;;;;;5021450;28;20022;-80
2023/06/21 05:35:43;;;;;;;15.15;9.63;;;;;;;;;;5006400;28;20222;-80
2023/06/21 05:38:08;;;;;;;12.60;9.40;;;;;;;;;;5027737;28;20168;-79
2023/06/21 05:40:34;;;;;;;21.65;11.45;;;;;;;;;;5021674;28;20395;-81
2023/06/21 05:43:01;;;;;;;14.73;10.15;;;;;;;;;;4998022;28;20045;-78
2023/06/21 05:45:28;;;;;;;11.85;8.93;;;;;;;;;;5005725;28;20053;-81
2023/06/21 05:47:57;;;;;;;13.55;8.80;;;;;;;;;;4995158;28;20109;-84
2023/06/21 05:50:22;;;;;;;17.10;9.80;;;;;;;;;;4997828;28;20156;-81
2023/06/21 05:52:48;;;;;;;18.08;8.63;;;;;;;;;;5009622;28;20530;-81
2023/06/21 05:55:14;;;;;;;14.50;7.90;;;;;;;;;;5002220;28;20463;-80
2023/06/21 05:57:39;;;;;;;34.00;9.80;;;;;;;;;;5011453;28;20030;-79
2023/06/21 06:00:09;;;;;;;22.15;8.80;;;;;;;;;;5019038;28;20026;-81
2023/06/21 06:02:34;;;;;;;22.08;12.10;;;;;;;;;;5008210;28;20022;-82
2023/06/21 06:05:00;;;;;;;13.23;8.35;;;;;;;;;;5004645;28;20147;-76
2023/06/21 06:07:25;;;;;;;15.25;7.97;;;;;;;;;;4999773;28;20025;-80
2023/06/21 06:09:51;;;;;;;15.93;7.65;;;;;;;;;;5024965;28;20766;-77
2023/06/21 06:12:18;;;;;;;17.85;8.13;;;;;;;;;;4996220;28;20026;-78
2023/06/21 06:14:45;;;;;;;12.57;6.80;;;;;;;;;;4987234;28;20686;-75
2023/06/21 06:17:12;;;;;;;13.38;7.45;;;;;;;;;;5005257;28;20042;-78
2023/06/21 06:19:40;;;;;;;15.20;7.20;;;;;;;;;;4995393;28;20026;-80
2023/06/21 06:22:06;;;;;;;15.15;6.57;;;;;;;;;;4994135;28;20046;-78
2023/06/21 06:24:31;;;;;;;14.75;6.82;;;;;;;;;;4998377;28;20022;-78
2023/06/21 06:26:58;;;;;;;13.73;6.45;;;;;;;;;;5004039;28;20634;-82
2023/06/21 06:29:24;;;;;;;10.77;7.45;;;;;;;;;;5012568;28;20044;-80
2023/06/21 06:31:49;;;;;;;13.60;6.70;;;;;;;;;;4998811;28;20034;-80
2023/06/21 06:34:15;;;;;;;11.30;7.63;;;;;;;;;;5001745;28;20080;-80
2023/06/21 06:36:40;;;;;;;13.35;7.43;;;;;;;;;;5000731;28;20038;-80
2023/06/21 06:39:07;;;;;;;15.48;6.60;;;;;;;;;;5006068;28;20034;-78
2023/06/21 06:41:33;;;;;;;13.57;6.43;;;;;;;;;;4987639;28;20040;-77
2023/06/21 06:43:58;;;;;;;13.70;5.78;;;;;;;;;;5000174;28;20414;-79
2023/06/21 06:46:25;;;;;;;13.13;6.35;;;;;;;;;;4988610;28;20116;-81
2023/06/21 06:48:52;;;;;;;16.23;6.30;;;;;;;;;;5002541;28;20446;-76
2023/06/21 06:51:18;;;;;;;7.30;5.60;;;;;;;;;;5001654;28;20506;-80
2023/06/21 06:53:43;;;;;;;15.68;5.93;;;;;;;;;;5011490;28;20061;-78
2023/06/21 06:56:10;;;;;;;9.02;6.00;;;;;;;;;;5008805;28;20034;-78
2023/06/21 06:58:35;;;;;;;7.25;5.28;;;;;;;;;;5001101;28;20140;-77
2023/06/21 07:01:03;;;;;;;10.95;5.30;;;;;;;;;;5005437;28;20109;-78
2023/06/21 07:03:29;;;;;;;11.13;5.65;;;;;;;;;;4996851;28;20026;-81
2023/06/21 07:05:55;;;;;;;11.82;5.60;;;;;;;;;;5018811;28;20323;-75
2023/06/21 07:08:21;;;;;;;8.82;5.28;;;;;;;;;;5007095;28;20034;-80
2023/06/21 07:10:48;;;;;;;9.45;5.32;;;;;;;;;;5006887;28;20538;-79
2023/06/21 07:13:15;;;;;;;9.50;5.53;;;;;;;;;;4992968;28;20041;-77
2023/06/21 07:15:41;;;;;;;16.38;7.38;;;;;;;;;;5003225;28;20474;-80
2023/06/21 07:18:06;;;;;;;9.77;5.38;;;;;;;;;;5019741;28;20142;-78
2023/06/21 07:20:34;;;;;;;9.98;5.68;;;;;;;;;;5018293;28;20025;-78
2023/06/21 07:23:01;;;;;;;12.32;6.25;;;;;;;;;;5015344;28;20042;-78
2023/06/21 07:25:28;;;;;;;8.40;5.30;;;;;;;;;;5011080;28;20138;-76
2023/06/21 07:27:54;;;;;;;11.82;6.65;;;;;;;;;;5012048;28;20812;-79
2023/06/21 07:30:22;;;;;;;8.63;5.65;;;;;;;;;;4998316;28;20034;-79
2023/06/21 07:32:49;;;;;;;9.63;5.15;;;;;;;;;;4995137;28;20097;-79
2023/06/21 07:35:16;;;;;;;8.80;5.20;;;;;;;;;;5008326;28;20038;-77
2023/06/21 07:37:43;;;;;;;8.70;5.20;;;;;;;;;;4991083;28;20069;-78
2023/06/21 07:40:10;;;;;;;12.00;5.05;;;;;;;;;;5013469;28;20022;-79
2023/06/21 07:42:37;;;;;;;14.77;5.10;;;;;;;;;;4995555;28;20034;-79
2023/06/21 07:45:05;;;;;;;8.63;4.78;;;;;;;;;;4988381;28;20040;-79
2023/06/21 07:47:31;;;;;;;10.73;4.78;;;;;;;;;;4988342;28;20042;-78
2023/06/21 07:49:59;;;;;;;10.60;5.10;;;;;;;;;;4999196;28;20018;-77
2023/06/21 07:52:25;;;;;;;14.93;6.55;;;;;;;;;;4985576;28;20030;-79
2023/06/21 07:54:51;;;;;;;13.27;5.47;;;;;;;;;;4995320;28;20038;-79
2023/06/21 07:57:18;;;;;;;8.05;4.85;;;;;;;;;;4998024;28;20029;-77
2023/06/21 08:00:08;;;;;;;6.20;4.60;;;;;;;;;;4991127;28;20408;-80
2023/06/21 08:02:38;;;;;;;10.68;4.90;;;;;;;;;;4990066;28;20045;-79
2023/06/21 08:05:05;;;;;;;9.75;6.10;;;;;;;;;;4977521;28;20516;-80
2023/06/21 08:07:34;;;;;;;12.10;5.53;;;;;;;;;;4996516;28;20022;-80
2023/06/21 08:10:00;;;;;;;8.48;4.78;;;;;;;;;;4997141;28;20037;-78
2023/06/21 08:12:26;;;;;;;7.82;4.45;;;;;;;;;;4980387;28;20037;-78
2023/06/21 08:14:53;;;;;;;7.95;4.50;;;;;;;;;;4992144;28;20029;-77
2023/06/21 08:17:21;;;;;;;9.52;4.60;;;;;;;;;;5001157;28;20037;-79
2023/06/21 08:19:47;;;;;;;10.65;4.90;;;;;;;;;;4992517;28;20585;-79
2023/06/21 08:22:14;;;;;;;8.32;4.75;;;;;;;;;;4996024;28;20054;-77
2023/06/21 08:24:40;;;;;;;8.10;4.97;;;;;;;;;;5002173;28;20040;-80
2023/06/21 08:27:06;;;;;;;6.25;4.18;;;;;;;;;;4997395;28;20034;-81
2023/06/21 08:29:32;;;;;;;9.93;4.80;;;;;;;;;;5002905;28;20041;-80
2023/06/21 08:31:57;;;;;;;8.73;4.38;;;;;;;;;;4999491;28;20029;-83
2023/06/21 08:34:23;;;;;;;10.88;3.95;;;;;;;;;;4996236;28;20030;-79
2023/06/21 08:36:58;;;;;;;7.95;4.65;;;;;;;;;;4995049;28;20746;-83
2023/06/21 08:39:24;;;;;;;7.68;4.57;;;;;;;;;;4989617;28;20033;-81
2023/06/21 08:41:51;;;;;;;6.07;3.97;;;;;;;;;;4988499;28;20037;-82
2023/06/21 08:44:17;;;;;;;9.13;4.40;;;;;;;;;;4985509;28;20038;-78
2023/06/21 08:46:47;;;;;;;19.27;4.88;;;;;;;;;;4989632;28;20042;-82
2023/06/21 08:49:17;;;;;;;8.50;4.73;;;;;;;;;;4994793;28;20034;-81
2023/06/21 08:52:10;;;;;;;10.20;5.75;;;;;;;;;;5006748;28;20295;-80
2023/06/21 08:54:40;;;;;;;7.60;4.20;;;;;;;;;;4984658;28;20034;-81
2023/06/21 08:57:22;;;;;;;7.00;4.63;;;;;;;;;;5000530;28;20030;-83
2023/06/21 08:59:53;;;;;;;9.55;4.03;;;;;;;;;;4994436;28;20034;-85
2023/06/21 09:03:11;;;;;;;6.18;3.97;;;;;;;;;;4991716;28;20038;-78
2023/06/21 09:05:49;;;;;;;6.90;3.80;;;;;;;;;;4982990;28;20029;-80
2023/06/21 09:08:15;;;;;;;44.47;8.98;;;;;;;;;;5001804;28;20529;-81
2023/06/21 09:10:53;;;;;;;8.73;5.15;;;;;;;;;;4996859;28;20030;-81
2023/06/21 09:13:22;;;;;;;14.02;4.35;;;;;;;;;;4993055;28;20030;-81
2023/06/21 09:15:54;;;;;;;9.30;4.05;;;;;;;;;;4998879;28;20088;-80
2023/06/21 09:18:22;;;;;;;9.25;3.92;;;;;;;;;;5010197;28;20422;-80
2023/06/21 09:20:50;;;;;;;7.05;3.97;;;;;;;;;;4992920;28;20022;-82
2023/06/21 09:23:16;;;;;;;7.10;4.95;;;;;;;;;;4985522;28;20281;-76
2023/06/21 09:25:44;;;;;;;9.48;4.07;;;;;;;;;;5014023;28;20033;-80
2023/06/21 09:28:12;;;;;;;7.88;4.28;;;;;;;;;;5005289;28;20037;-82
2023/06/21 09:30:39;;;;;;;7.82;5.38;;;;;;;;;;5002017;28;20059;-78
2023/06/21 09:33:14;;;;;;;9.90;4.55;;;;;;;;;;5003917;28;20121;-77
2023/06/21 09:35:41;;;;;;;7.15;3.65;;;;;;;;;;4988786;28;20026;-83
2023/06/21 09:38:31;;;;;;;7.85;3.50;;;;;;;;;;5002058;28;20042;-82
2023/06/21 09:41:00;;;;;;;9.52;5.22;;;;;;;;;;4992970;28;20027;-77
2023/06/21 09:43:26;;;;;;;6.03;4.05;;;;;;;;;;4986576;28;20030;-79
2023/06/21 09:46:09;;;;;;;5.00;3.90;;;;;;;;;;4982542;28;20033;-80
2023/06/21 09:48:37;;;;;;;9.25;4.03;;;;;;;;;;4993172;28;20025;-81
2023/06/21 09:51:08;;;;;;;10.40;4.53;;;;;;;;;;4986189;28;20030;-80
2023/06/21 09:53:41;;;;;;;6.70;4.10;;;;;;;;;;4993720;28;20323;-80
2023/06/21 09:56:07;;;;;;;10.30;3.85;;;;;;;;;;4986371;28;20533;-79
2023/06/21 09:58:34;;;;;;;14.32;4.90;;;;;;;;;;4988070;28;20030;-80
2023/06/21 10:01:06;;;;;;;8.00;4.22;;;;;;;;;;4993280;28;20115;-81
2023/06/21 10:03:34;;;;;;;6.30;4.38;;;;;;;;;;4988215;28;20034;-77
2023/06/21 10:06:02;;;;;;;12.20;3.92;;;;;;;;;;4974341;28;20389;-80
2023/06/21 10:08:32;;;;;;;9.38;4.20;;;;;;;;;;4999646;28;20155;-81
2023/06/21 10:11:01;;;;;;;7.43;4.13;;;;;;;;;;4993749;28;20030;-79
2023/06/21 10:13:38;;;;;;;10.15;5.28;;;;;;;;;;4999603;28;20478;-80
2023/06/21 10:16:05;;;;;;;8.82;4.18;;;;;;;;;;4987081;28;20018;-84
2023/06/21 10:18:34;;;;;;;9.60;4.10;;;;;;;;;;4995764;28;20030;-82
2023/06/21 10:21:05;;;;;;;8.70;4.43;;;;;;;;;;4989182;28;20030;-85
2023/06/21 10:23:34;;;;;;;7.22;4.57;;;;;;;;;;5001371;28;20050;-84
2023/06/21 10:26:05;;;;;;;7.63;3.88;;;;;;;;;;4997344;28;20077;-86
2023/06/21 10:28:41;;;;;;;6.82;3.92;;;;;;;;;;4998832;28;20045;-81
2023/06/21 10:31:11;;;;;;;8.15;3.53;;;;;;;;;;4998741;28;20034;-86
2023/06/21 10:33:38;;;;;;;8.10;3.67;;;;;;;;;;4981381;28;20103;-82
2023/06/21 10:36:10;;;;;;;8.23;4.00;;;;;;;;;;5005288;28;20060;-80
2023/06/21 10:38:46;;;;;;;8.95;4.22;;;;;;;;;;5013011;28;20026;-84
2023/06/21 10:41:14;;;;;;;7.55;4.00;;;;;;;;;;4995975;28;20114;-78
2023/06/21 10:43:42;;;;;;;6.68;4.93;;;;;;;;;;4993558;28;20327;-80
2023/06/21 10:46:10;;;;;;;5.00;3.78;;;;;;;;;;4995566;28;20083;-79
2023/06/21 10:48:36;;;;;;;11.18;6.18;;;;;;;;;;5000237;28;20495;-78
2023/06/21 10:51:04;;;;;;;8.05;3.85;;;;;;;;;;4989077;28;20157;-79
2023/06/21 10:53:35;;;;;;;6.15;4.05;;;;;;;;;;4994161;28;20038;-78
2023/06/21 10:56:05;;;;;;;10.90;4.65;;;;;;;;;;4989650;28;20030;-80
2023/06/21 10:58:35;;;;;;;5.15;4.15;;;;;;;;;;5005922;28;20026;-78
2023/06/21 11:01:04;;;;;;;7.75;4.13;;;;;;;;;;4981179;28;20426;-78
2023/06/21 11:03:30;;;;;;;7.47;3.78;;;;;;;;;;4999503;28;20041;-81
2023/06/21 11:06:28;;;;;;;7.40;3.90;;;;;;;;;;4989209;28;20034;-81
2023/06/21 11:08:55;;;;;;;8.50;4.60;;;;;;;;;;5005887;28;20141;-79
2023/06/21 11:11:34;;;;;;;6.40;3.70;;;;;;;;;;4992652;28;20082;-80
2023/06/21 11:14:06;;;;;;;4.40;3.85;;;;;;;;;;4996078;28;20042;-81
2023/06/21 11:16:39;;;;;;;8.43;4.00;;;;;;;;;;4988838;28;20478;-81
2023/06/21 11:19:10;;;;;;;7.15;4.47;;;;;;;;;;4988317;28;20028;-79
2023/06/21 11:21:48;;;;;;;6.65;3.95;;;;;;;;;;4986711;28;20025;-79
2023/06/21 11:24:18;;;;;;;12.18;4.75;;;;;;;;;;4986321;28;20040;-81
2023/06/21 11:26:57;;;;;;;;;;;;;;;;;;4989340;28;20510;-78
2023/06/21 11:29:50;;;;;;;9.05;4.30;;;;;;;;;;4986960;28;19922;-80
2023/06/21 11:32:28;;;;;;;9.48;4.95;;;;;;;;;;4968187;28;20057;-78
2023/06/21 11:34:59;;;;;;;8.05;4.32;;;;;;;;;;4982634;28;20378;-82
2023/06/21 11:37:44;;;;;;;7.63;4.53;;;;;;;;;;4990283;28;20034;-79
2023/06/21 11:40:50;;;;;;;7.40;4.38;;;;;;;;;;4990386;28;20509;-80
2023/06/21 11:43:18;;;;;;;8.15;4.45;;;;;;;;;;4988194;28;20112;-79
2023/06/21 11:45:57;;;;;;;9.43;4.78;;;;;;;;;;4984413;28;20390;-78
2023/06/21 11:48:28;;;;;;;6.82;4.05;;;;;;;;;;4993386;28;20072;-81
2023/06/21 11:51:07;;;;;;;7.85;4.70;;;;;;;;;;4998253;28;20030;-79
2023/06/21 11:53:41;;;;;;;10.00;4.72;;;;;;;;;;4986253;28;20088;-80
2023/06/21 11:56:13;;;;;;;7.03;5.13;;;;;;;;;;4986591;28;20030;-80
2023/06/21 11:58:39;;;;;;;11.40;4.68;;;;;;;;;;4986142;28;20041;-79
2023/06/21 12:01:07;;;;;;;11.57;4.85;;;;;;;;;;5004738;28;20019;-81
2023/06/21 12:03:34;;;;;;;6.22;4.47;;;;;;;;;;4992468;28;20491;-82
2023/06/21 12:06:02;;;;;;;9.15;4.78;;;;;;;;;;4982678;28;20030;-81
2023/06/21 12:08:37;;;;;;;7.05;4.78;;;;;;;;;;4984717;28;20513;-80
2023/06/21 12:11:09;;;;;;;7.05;4.65;;;;;;;;;;5008281;28;20620;-83
2023/06/21 12:13:37;;;;;;;8.25;5.05;;;;;;;;;;4992826;28;20117;-84
2023/06/21 12:16:10;;;;;;;8.18;5.00;;;;;;;;;;4981743;28;20046;-81
2023/06/21 12:18:38;;;;;;;8.40;4.75;;;;;;;;;;5006723;28;20025;-80
2023/06/21 12:21:16;;;;;;;7.35;4.45;;;;;;;;;;4992341;28;20030;-83
2023/06/21 12:23:42;;;;;;;6.10;4.13;;;;;;;;;;4985825;28;20072;-82
2023/06/21 12:26:12;;;;;;;6.30;4.85;;;;;;;;;;4981033;28;20050;-81
2023/06/21 12:28:38;;;;;;;12.05;6.20;;;;;;;;;;4983715;28;20125;-82
2023/06/21 12:31:07;;;;;;;9.73;4.75;;;;;;;;;;4987876;28;20042;-80
2023/06/21 12:33:36;;;;;;;5.43;4.15;;;;;;;;;;4987879;28;20033;-78
2023/06/21 12:36:28;;;;;;;8.18;4.57;;;;;;;;;;4999346;28;20030;-79
2023/06/21 12:38:59;;;;;;;13.38;5.20;;;;;;;;;;4990550;28;20107;-80
2023/06/21 12:41:28;;;;;;;9.77;5.15;;;;;;;;;;4986210;28;20066;-82
2023/06/21 12:43:57;;;;;;;7.47;4.60;;;;;;;;;;4994563;28;20030;-80
2023/06/21 12:46:24;;;;;;;6.55;4.65;;;;;;;;;;4994677;28;20054;-83
2023/06/21 12:48:55;;;;;;;7.20;4.95;;;;;;;;;;4972962;28;20042;-82
2023/06/21 12:51:30;;;;;;;8.63;4.47;;;;;;;;;;5000445;28;20132;-80
2023/06/21 12:54:03;;;;;;;6.00;4.60;;;;;;;;;;4985839;28;20033;-79
2023/06/21 12:56:36;;;;;;;6.30;4.30;;;;;;;;;;4991824;28;20034;-78
2023/06/21 12:59:02;;;;;;;6.40;4.32;;;;;;;;;;4973069;28;20042;-77
2023/06/21 13:01:30;;;;;;;5.85;4.47;;;;;;;;;;4982901;28;20030;-77
2023/06/21 13:04:05;;;;;;;5.72;4.53;;;;;;;;;;4999863;28;20038;-79
2023/06/21 13:06:30;;;;;;;10.85;4.90;;;;;;;;;;4981975;28;20029;-77
2023/06/21 13:08:57;;;;;;;8.57;4.65;;;;;;;;;;4989168;28;20030;-79
2023/06/21 13:11:24;;;;;;;9.38;4.90;;;;;;;;;;4989157;28;20098;-79
2023/06/21 13:13:51;;;;;;;5.55;4.72;;;;;;;;;;4989394;28;20754;-79
2023/06/21 13:16:17;;;;;;;9.23;4.95;;;;;;;;;;4978324;28;20056;-79
2023/06/21 13:18:46;;;;;;;11.32;5.22;;;;;;;;;;4985117;28;20034;-79
2023/06/21 13:21:16;;;;;;;11.80;6.18;;;;;;;;;;4996152;28;20029;-77
2023/06/21 13:23:43;;;;;;;10.27;5.10;;;;;;;;;;4985209;28;20145;-77
2023/06/21 13:26:09;;;;;;;12.82;4.80;;;;;;;;;;4996979;28;20042;-77
2023/06/21 13:28:40;;;;;;;11.48;4.90;;;;;;;;;;4999792;28;20028;-79
2023/06/21 13:31:05;;;;;;;12.07;4.82;;;;;;;;;;4987649;28;20038;-79
2023/06/21 13:33:31;;;;;;;8.68;4.38;;;;;;;;;;4999646;28;20105;-80
2023/06/21 13:35:56;;;;;;;9.60;4.65;;;;;;;;;;4993281;28;20367;-80
2023/06/21 13:38:22;;;;;;;7.88;4.30;;;;;;;;;;4993650;28;20095;-77
2023/06/21 13:40:48;;;;;;;10.60;5.10;;;;;;;;;;5005333;28;20022;-78
2023/06/21 13:43:15;;;;;;;12.90;5.45;;;;;;;;;;5002146;28;20057;-77
2023/06/21 13:45:42;;;;;;;11.45;4.30;;;;;;;;;;5006482;28;20022;-81
2023/06/21 13:48:10;;;;;;;8.93;5.18;;;;;;;;;;5003458;28;20093;-77
2023/06/21 13:50:35;;;;;;;7.05;4.15;;;;;;;;;;5000709;28;20065;-78
2023/06/21 13:53:01;;;;;;;8.25;4.57;;;;;;;;;;5010462;28;20030;-78
2023/06/21 13:55:49;;;;;;;11.23;4.10;;;;;;;;;;5008337;28;20022;-79
2023/06/21 13:58:15;;;;;;;8.38;4.20;;;;;;;;;;5004960;28;20022;-77
2023/06/21 14:00:41;;;;;;;9.88;5.28;;;;;;;;;;4992653;28;20022;-75
2023/06/21 14:03:08;;;;;;;19.15;4.30;;;;;;;;;;5000245;28;20042;-77
2023/06/21 14:05:34;;;;;;;12.93;4.53;;;;;;;;;;4989132;28;20048;-77
2023/06/21 14:08:00;;;;;;;7.82;4.53;;;;;;;;;;5000379;28;20064;-77
2023/06/21 14:10:25;;;;;;;8.77;4.15;;;;;;;;;;5001502;28;20129;-76
2023/06/21 14:12:51;;;;;;;10.10;4.97;;;;;;;;;;5011332;28;20057;-73
2023/06/21 14:15:17;;;;;;;10.05;3.88;;;;;;;;;;5003568;28;20386;-77
2023/06/21 14:17:43;;;;;;;11.48;4.65;;;;;;;;;;5002230;28;20030;-79
2023/06/21 14:20:09;;;;;;;7.07;3.92;;;;;;;;;;5003523;28;20404;-76
2023/06/21 14:22:36;;;;;;;10.15;4.30;;;;;;;;;;5010041;28;20119;-78
2023/06/21 14:25:04;;;;;;;6.05;4.53;;;;;;;;;;5027869;28;20061;-77
2023/06/21 14:27:29;;;;;;;10.65;4.90;;;;;;;;;;5003613;28;20057;-74
2023/06/21 14:29:58;;;;;;;18.00;5.65;;;;;;;;;;4998137;28;20025;-76
2023/06/21 14:32:25;;;;;;;10.95;5.25;;;;;;;;;;5000459;28;20072;-78
2023/06/21 14:34:52;;;;;;;19.15;4.78;;;;;;;;;;4997445;28;20026;-77
2023/06/21 14:37:17;;;;;;;31.20;6.88;;;;;;;;;;5005504;28;20026;-76
2023/06/21 14:39:43;;;;;;;13.05;5.13;;;;;;;;;;5009322;28;20034;-76
2023/06/21 14:42:10;;;;;;;11.50;4.22;;;;;;;;;;4984322;28;20057;-77